sensor_id;sensor_type;location;lat;lon;timestamp;pressure;altitude;pressure_sealevel;temperature;humidity
56518;BME280;42419;48.760;2.322;2022-09-21T00:00:37;101771.06;;;22.22;38.15
56518;BME280;42419;48.760;2.322;2022-09-21T00:03:03;101777.31;;;22.23;37.94
56518;BME280;42419;48.760;2.322;2022-09-21T00:05:29;101750.06;;;22.09;37.78
56518;BME280;42419;48.760;2.322;2022-09-21T00:07:55;101772.91;;;22.22;38.03
56518;BME280;42419;48.760;2.322;2022-09-21T00:10:21;101763.16;;;22.18;37.88
56518;BME280;42419;48.760;2.322;2022-09-21T00:12:47;101764.00;;;22.20;38.13
56518;BME280;42419;48.760;2.322;2022-09-21T00:15:14;101755.31;;;22.12;37.68
56518;BME280;42419;48.760;2.322;2022-09-21T00:17:44;101752.81;;;22.06;37.63
56518;BME280;42419;48.760;2.322;2022-09-21T00:20:10;101768.50;;;22.19;37.47
56518;BME280;42419;48.760;2.322;2022-09-21T00:22:35;101766.72;;;22.18;37.50
56518;BME280;42419;48.760;2.322;2022-09-21T00:25:02;101768.63;;;22.15;37.53
56518;BME280;42419;48.760;2.322;2022-09-21T00:27:29;101772.16;;;22.17;37.47
56518;BME280;42419;48.760;2.322;2022-09-21T00:29:58;101771.28;;;22.16;37.38
56518;BME280;42419;48.760;2.322;2022-09-21T00:32:28;101774.84;;;22.17;37.64
56518;BME280;42419;48.760;2.322;2022-09-21T00:34:56;101759.03;;;22.08;37.62
56518;BME280;42419;48.760;2.322;2022-09-21T00:37:22;101739.66;;;21.98;37.37
56518;BME280;42419;48.760;2.322;2022-09-21T00:39:47;101782.03;;;22.15;37.66
56518;BME280;42419;48.760;2.322;2022-09-21T00:42:27;101778.56;;;22.13;37.60
56518;BME280;42419;48.760;2.322;2022-09-21T00:44:53;101774.91;;;22.14;37.56
56518;BME280;42419;48.760;2.322;2022-09-21T00:47:24;101776.69;;;22.15;37.27
56518;BME280;42419;48.760;2.322;2022-09-21T00:49:53;101769.63;;;22.12;37.29
56518;BME280;42419;48.760;2.322;2022-09-21T00:52:23;101776.78;;;22.12;37.18
56518;BME280;42419;48.760;2.322;2022-09-21T00:54:52;101783.03;;;22.12;37.32
56518;BME280;42419;48.760;2.322;2022-09-21T00:57:21;101754.84;;;21.99;37.35
56518;BME280;42419;48.760;2.322;2022-09-21T00:59:51;101762.00;;;21.99;37.27
56518;BME280;42419;48.760;2.322;2022-09-21T01:02:19;101769.00;;;22.04;37.17
56518;BME280;42419;48.760;2.322;2022-09-21T01:04:44;101783.09;;;22.09;37.33
56518;BME280;42419;48.760;2.322;2022-09-21T01:07:16;101783.09;;;22.09;37.33
56518;BME280;42419;48.760;2.322;2022-09-21T01:09:46;101784.94;;;22.09;37.20
56518;BME280;42419;48.760;2.322;2022-09-21T01:15:02;101784.94;;;22.09;37.26
56518;BME280;42419;48.760;2.322;2022-09-21T01:20:33;101725.19;;;21.74;37.16
56518;BME280;42419;48.760;2.322;2022-09-21T01:23:07;101787.66;;;22.07;37.05
56518;BME280;42419;48.760;2.322;2022-09-21T01:30:59;101788.56;;;22.06;37.04
56518;BME280;42419;48.760;2.322;2022-09-21T01:33:35;101792.19;;;22.05;37.10
56518;BME280;42419;48.760;2.322;2022-09-21T01:36:10;101788.63;;;22.05;36.96
56518;BME280;42419;48.760;2.322;2022-09-21T01:38:42;101773.75;;;21.94;36.92
56518;BME280;42419;48.760;2.322;2022-09-21T01:41:12;101795.75;;;22.06;37.05
56518;BME280;42419;48.760;2.322;2022-09-21T01:43:41;101791.28;;;22.05;37.02
56518;BME280;42419;48.760;2.322;2022-09-21T01:46:11;101794.84;;;22.05;36.96
56518;BME280;42419;48.760;2.322;2022-09-21T01:48:43;101795.75;;;22.06;37.08
56518;BME280;42419;48.760;2.322;2022-09-21T01:51:10;101779.91;;;21.98;37.00
56518;BME280;42419;48.760;2.322;2022-09-21T01:53:46;101794.94;;;22.04;36.93
56518;BME280;42419;48.760;2.322;2022-09-21T01:56:19;101792.19;;;22.05;36.86
56518;BME280;42419;48.760;2.322;2022-09-21T01:58:51;101788.69;;;22.03;36.92
56518;BME280;42419;48.760;2.322;2022-09-21T02:01:20;101786.88;;;22.04;36.93
56518;BME280;42419;48.760;2.322;2022-09-21T02:03:56;101757.00;;;21.86;36.71
56518;BME280;42419;48.760;2.322;2022-09-21T02:06:27;101790.47;;;22.03;36.71
56518;BME280;42419;48.760;2.322;2022-09-21T02:08:53;101787.81;;;22.03;36.78
56518;BME280;42419;48.760;2.322;2022-09-21T02:11:19;101789.59;;;22.02;36.70
56518;BME280;42419;48.760;2.322;2022-09-21T02:13:47;101789.59;;;22.02;36.94
56518;BME280;42419;48.760;2.322;2022-09-21T02:16:33;101781.56;;;22.02;36.67
56518;BME280;42419;48.760;2.322;2022-09-21T02:27:11;101764.97;;;21.89;36.67
56518;BME280;42419;48.760;2.322;2022-09-21T02:30:00;101786.13;;;21.99;36.81
56518;BME280;42419;48.760;2.322;2022-09-21T02:32:32;101758.75;;;21.87;36.88
56518;BME280;42419;48.760;2.322;2022-09-21T02:35:05;101776.34;;;21.98;36.83
56518;BME280;42419;48.760;2.322;2022-09-21T02:37:39;101776.34;;;21.98;36.83
56518;BME280;42419;48.760;2.322;2022-09-21T02:40:19;101783.50;;;21.97;36.81
56518;BME280;42419;48.760;2.322;2022-09-21T02:43:01;101771.88;;;21.96;36.67
56518;BME280;42419;48.760;2.322;2022-09-21T02:45:34;101771.97;;;21.95;36.87
56518;BME280;42419;48.760;2.322;2022-09-21T02:48:16;101774.56;;;21.96;37.01
56518;BME280;42419;48.760;2.322;2022-09-21T02:51:09;101767.44;;;21.95;36.61
56518;BME280;42419;48.760;2.322;2022-09-21T02:53:37;101755.16;;;21.88;36.63
56518;BME280;42419;48.760;2.322;2022-09-21T02:56:05;101722.59;;;21.71;36.77
56518;BME280;42419;48.760;2.322;2022-09-21T02:58:38;101771.88;;;21.96;36.75
56518;BME280;42419;48.760;2.322;2022-09-21T03:01:09;101747.19;;;21.85;36.57
56518;BME280;42419;48.760;2.322;2022-09-21T03:03:35;101741.06;;;21.82;36.77
56518;BME280;42419;48.760;2.322;2022-09-21T03:06:00;101759.41;;;21.95;36.91
56518;BME280;42419;48.760;2.322;2022-09-21T03:08:26;101755.91;;;21.93;36.72
56518;BME280;42419;48.760;2.322;2022-09-21T03:10:52;101758.56;;;21.95;36.95
56518;BME280;42419;48.760;2.322;2022-09-21T03:13:18;101763.91;;;21.95;36.79
56518;BME280;42419;48.760;2.322;2022-09-21T03:15:44;101752.31;;;21.94;37.01
56518;BME280;42419;48.760;2.322;2022-09-21T03:18:11;101759.50;;;21.92;36.86
56518;BME280;42419;48.760;2.322;2022-09-21T03:20:43;101760.34;;;21.94;36.82
56518;BME280;42419;48.760;2.322;2022-09-21T03:23:12;101746.34;;;21.83;36.82
56518;BME280;42419;48.760;2.322;2022-09-21T03:25:37;101756.78;;;21.94;36.66
56518;BME280;42419;48.760;2.322;2022-09-21T03:28:03;101766.59;;;21.95;36.86
56518;BME280;42419;48.760;2.322;2022-09-21T03:30:28;101769.28;;;21.95;36.86
56518;BME280;42419;48.760;2.322;2022-09-21T03:32:54;101751.59;;;21.88;36.73
56518;BME280;42419;48.760;2.322;2022-09-21T03:35:21;101765.72;;;21.94;36.82
56518;BME280;42419;48.760;2.322;2022-09-21T03:37:48;101758.63;;;21.92;36.98
56518;BME280;42419;48.760;2.322;2022-09-21T03:40:14;101759.50;;;21.92;36.67
56518;BME280;42419;48.760;2.322;2022-09-21T03:42:41;101759.53;;;21.91;36.64
56518;BME280;42419;48.760;2.322;2022-09-21T03:45:08;101739.28;;;21.81;36.83
56518;BME280;42419;48.760;2.322;2022-09-21T03:47:34;101762.19;;;21.92;36.91
56518;BME280;42419;48.760;2.322;2022-09-21T03:49:59;101752.47;;;21.88;36.86
56518;BME280;42419;48.760;2.322;2022-09-21T03:52:25;101759.50;;;21.92;36.81
56518;BME280;42419;48.760;2.322;2022-09-21T03:54:50;101758.63;;;21.92;36.86
56518;BME280;42419;48.760;2.322;2022-09-21T03:57:16;101767.56;;;21.92;36.84
56518;BME280;42419;48.760;2.322;2022-09-21T03:59:41;101763.97;;;21.92;36.89
56518;BME280;42419;48.760;2.322;2022-09-21T04:02:07;101762.22;;;21.91;36.77
56518;BME280;42419;48.760;2.322;2022-09-21T04:04:32;101757.75;;;21.91;36.84
56518;BME280;42419;48.760;2.322;2022-09-21T04:06:58;101742.84;;;21.81;36.71
56518;BME280;42419;48.760;2.322;2022-09-21T04:09:24;101764.91;;;21.91;36.81
56518;BME280;42419;48.760;2.322;2022-09-21T04:11:49;101756.94;;;21.89;36.63
56518;BME280;42419;48.760;2.322;2022-09-21T04:14:14;101765.84;;;21.90;36.74
56518;BME280;42419;48.760;2.322;2022-09-21T04:16:40;101757.91;;;21.85;36.68
56518;BME280;42419;48.760;2.322;2022-09-21T04:19:05;101757.84;;;21.88;36.67
56518;BME280;42419;48.760;2.322;2022-09-21T04:21:31;101744.81;;;21.75;36.72
56518;BME280;42419;48.760;2.322;2022-09-21T04:23:57;101750.09;;;21.78;36.79
56518;BME280;42419;48.760;2.322;2022-09-21T04:26:28;101757.03;;;21.85;36.54
56518;BME280;42419;48.760;2.322;2022-09-21T04:28:54;101759.72;;;21.85;36.74
56518;BME280;42419;48.760;2.322;2022-09-21T04:31:21;101749.09;;;21.82;36.65
56518;BME280;42419;48.760;2.322;2022-09-21T04:33:48;101758.88;;;21.83;36.88
56518;BME280;42419;48.760;2.322;2022-09-21T04:36:14;101758.06;;;21.81;36.86
56518;BME280;42419;48.760;2.322;2022-09-21T04:38:39;101744.59;;;21.82;36.72
56518;BME280;42419;48.760;2.322;2022-09-21T04:41:05;101758.88;;;21.83;36.60
56518;BME280;42419;48.760;2.322;2022-09-21T04:43:31;101745.72;;;21.75;36.73
56518;BME280;42419;48.760;2.322;2022-09-21T04:45:56;101757.19;;;21.80;36.71
56518;BME280;42419;48.760;2.322;2022-09-21T04:48:22;101758.97;;;21.80;36.63
56518;BME280;42419;48.760;2.322;2022-09-21T04:50:48;101765.25;;;21.79;36.75
56518;BME280;42419;48.760;2.322;2022-09-21T04:53:14;101749.31;;;21.74;36.61
56518;BME280;42419;48.760;2.322;2022-09-21T04:55:40;101766.25;;;21.76;36.78
56518;BME280;42419;48.760;2.322;2022-09-21T04:58:05;101769.81;;;21.77;36.65
56518;BME280;42419;48.760;2.322;2022-09-21T05:00:31;101768.91;;;21.76;36.67
56518;BME280;42419;48.760;2.322;2022-09-21T05:02:56;101760.00;;;21.76;36.31
56518;BME280;42419;48.760;2.322;2022-09-21T05:05:22;101771.59;;;21.76;36.63
56518;BME280;42419;48.760;2.322;2022-09-21T05:07:47;101761.78;;;21.75;36.88
56518;BME280;42419;48.760;2.322;2022-09-21T05:10:13;101728.38;;;21.58;36.40
56518;BME280;42419;48.760;2.322;2022-09-21T05:12:38;101764.47;;;21.75;36.63
56518;BME280;42419;48.760;2.322;2022-09-21T05:15:06;101754.88;;;21.68;36.83
56518;BME280;42419;48.760;2.322;2022-09-21T05:17:31;101762.81;;;21.71;36.68
56518;BME280;42419;48.760;2.322;2022-09-21T05:19:57;101771.59;;;21.76;37.04
56518;BME280;42419;48.760;2.322;2022-09-21T05:22:22;101753.88;;;21.71;37.09
56518;BME280;42419;48.760;2.322;2022-09-21T05:24:48;101767.94;;;21.79;37.00
56518;BME280;42419;48.760;2.322;2022-09-21T05:27:13;101759.22;;;21.72;36.90
56518;BME280;42419;48.760;2.322;2022-09-21T05:29:39;101755.44;;;21.78;36.84
56518;BME280;42419;48.760;2.322;2022-09-21T05:32:12;101761.75;;;21.77;37.20
56518;BME280;42419;48.760;2.322;2022-09-21T05:40:16;101766.25;;;21.76;36.78
56518;BME280;42419;48.760;2.322;2022-09-21T05:42:41;101766.97;;;21.81;37.31
56518;BME280;42419;48.760;2.322;2022-09-21T05:45:11;101770.59;;;21.80;37.23
56518;BME280;42419;48.760;2.322;2022-09-21T05:58:22;101770.69;;;21.77;37.45
56518;BME280;42419;48.760;2.322;2022-09-21T06:03:31;101774.19;;;21.79;37.53
56518;BME280;42419;48.760;2.322;2022-09-21T06:05:57;101768.81;;;21.79;37.51
56518;BME280;42419;48.760;2.322;2022-09-21T06:08:24;101762.53;;;21.80;37.35
56518;BME280;42419;48.760;2.322;2022-09-21T06:10:50;101762.66;;;21.77;37.30
56518;BME280;42419;48.760;2.322;2022-09-21T06:13:16;101765.22;;;21.80;37.26
56518;BME280;42419;48.760;2.322;2022-09-21T06:15:41;101769.69;;;21.80;37.24
56518;BME280;42419;48.760;2.322;2022-09-21T06:18:07;101762.56;;;21.79;37.46
56518;BME280;42419;48.760;2.322;2022-09-21T06:20:34;101771.47;;;21.81;37.52
56518;BME280;42419;48.760;2.322;2022-09-21T06:23:10;101767.94;;;21.79;37.39
56518;BME280;42419;48.760;2.322;2022-09-21T06:25:36;101771.41;;;21.82;37.48
56518;BME280;42419;48.760;2.322;2022-09-21T06:28:10;101763.34;;;21.82;37.41
56518;BME280;42419;48.760;2.322;2022-09-21T06:30:37;101770.47;;;21.83;37.33
56518;BME280;42419;48.760;2.322;2022-09-21T06:33:04;101775.84;;;21.83;37.26
56518;BME280;42419;48.760;2.322;2022-09-21T06:35:31;101777.59;;;21.84;37.27
56518;BME280;42419;48.760;2.322;2022-09-21T06:38:01;101762.78;;;21.73;37.23
56518;BME280;42419;48.760;2.322;2022-09-21T06:40:27;101776.75;;;21.82;37.17
56518;BME280;42419;48.760;2.322;2022-09-21T06:42:57;101772.50;;;21.75;37.20
56518;BME280;42419;48.760;2.322;2022-09-21T06:45:27;101776.06;;;21.76;37.14
56518;BME280;42419;48.760;2.322;2022-09-21T06:47:53;101790.16;;;21.82;36.52
56518;BME280;42419;48.760;2.322;2022-09-21T06:50:18;101784.81;;;21.82;37.13
56518;BME280;42419;48.760;2.322;2022-09-21T06:52:44;101786.56;;;21.83;37.08
56518;BME280;42419;48.760;2.322;2022-09-21T06:55:10;101783.88;;;21.83;37.17
56518;BME280;42419;48.760;2.322;2022-09-21T06:57:35;101779.41;;;21.84;36.96
56518;BME280;42419;48.760;2.322;2022-09-21T07:00:06;101776.72;;;21.84;37.00
56518;BME280;42419;48.760;2.322;2022-09-21T07:02:32;101775.84;;;21.83;37.08
56518;BME280;42419;48.760;2.322;2022-09-21T07:04:57;101773.38;;;21.77;36.99
56518;BME280;42419;48.760;2.322;2022-09-21T07:07:23;101776.75;;;21.82;37.05
56518;BME280;42419;48.760;2.322;2022-09-21T07:09:49;101782.09;;;21.84;37.03
56518;BME280;42419;48.760;2.322;2022-09-21T07:12:14;101784.72;;;21.85;36.91
56518;BME280;42419;48.760;2.322;2022-09-21T07:14:40;101780.28;;;21.86;36.92
56518;BME280;42419;48.760;2.322;2022-09-21T07:17:09;101782.00;;;21.87;37.09
56518;BME280;42419;48.760;2.322;2022-09-21T07:19:35;101779.34;;;21.87;36.88
56518;BME280;42419;48.760;2.322;2022-09-21T07:22:00;101779.28;;;21.88;36.92
56518;BME280;42419;48.760;2.322;2022-09-21T07:24:25;101780.19;;;21.89;36.85
56518;BME280;42419;48.760;2.322;2022-09-21T07:26:51;101778.38;;;21.89;36.82
56518;BME280;42419;48.760;2.322;2022-09-21T07:29:19;101766.00;;;21.84;37.12
56518;BME280;42419;48.760;2.322;2022-09-21T07:31:44;101773.91;;;21.90;36.79
56518;BME280;42419;48.760;2.322;2022-09-21T07:34:10;101772.94;;;21.91;36.78
56518;BME280;42419;48.760;2.322;2022-09-21T07:36:36;101775.59;;;21.92;36.80
56518;BME280;42419;48.760;2.322;2022-09-21T07:39:02;101765.84;;;21.90;36.81
56518;BME280;42419;48.760;2.322;2022-09-21T07:41:28;101778.25;;;21.94;36.87
56518;BME280;42419;48.760;2.322;2022-09-21T07:43:53;101766.63;;;21.93;36.93
56518;BME280;42419;48.760;2.322;2022-09-21T07:46:18;101771.00;;;21.96;36.75
56518;BME280;42419;48.760;2.322;2022-09-21T07:48:44;101765.59;;;21.98;36.65
56518;BME280;42419;48.760;2.322;2022-09-21T07:51:12;101775.41;;;21.99;36.79
56518;BME280;42419;48.760;2.322;2022-09-21T07:53:40;101768.19;;;22.01;36.75
56518;BME280;42419;48.760;2.322;2022-09-21T07:56:08;101759.34;;;21.97;36.81
56518;BME280;42419;48.760;2.322;2022-09-21T07:58:35;101751.31;;;21.97;37.49
56518;BME280;42419;48.760;2.322;2022-09-21T08:01:19;101753.75;;;22.05;37.65
56518;BME280;42419;48.760;2.322;2022-09-21T08:03:48;101767.81;;;22.13;38.00
56518;BME280;42419;48.760;2.322;2022-09-21T08:06:13;101763.31;;;22.13;38.02
56518;BME280;42419;48.760;2.322;2022-09-21T08:08:38;101758.75;;;22.17;38.29
56518;BME280;42419;48.760;2.322;2022-09-21T08:11:06;101753.31;;;22.18;37.99
56518;BME280;42419;48.760;2.322;2022-09-21T08:13:32;101763.84;;;22.24;38.19
56518;BME280;42419;48.760;2.322;2022-09-21T08:16:01;101757.66;;;22.22;38.37
56518;BME280;42419;48.760;2.322;2022-09-21T08:18:27;101765.47;;;22.30;38.29
56518;BME280;42419;48.760;2.322;2022-09-21T08:20:54;101763.59;;;22.32;37.86
56518;BME280;42419;48.760;2.322;2022-09-21T08:23:19;101771.50;;;22.36;37.82
56518;BME280;42419;48.760;2.322;2022-09-21T08:25:45;101759.81;;;22.39;37.69
56518;BME280;42419;48.760;2.322;2022-09-21T08:28:10;101756.16;;;22.40;37.54
56518;BME280;42419;48.760;2.322;2022-09-21T08:30:36;101749.06;;;22.39;37.63
56518;BME280;42419;48.760;2.322;2022-09-21T08:33:01;101765.59;;;22.53;37.31
56518;BME280;42419;48.760;2.322;2022-09-21T08:35:27;101770.88;;;22.56;37.33
56518;BME280;42419;48.760;2.322;2022-09-21T08:37:53;101766.41;;;22.57;36.90
56518;BME280;42419;48.760;2.322;2022-09-21T08:40:19;101771.50;;;22.64;37.16
56518;BME280;42419;48.760;2.322;2022-09-21T08:43:09;101766.91;;;22.68;36.59
56518;BME280;42419;48.760;2.322;2022-09-21T08:45:44;101773.91;;;22.72;36.47
56518;BME280;42419;48.760;2.322;2022-09-21T08:48:24;101760.34;;;22.76;36.57
56518;BME280;42419;48.760;2.322;2022-09-21T08:50:54;101771.03;;;22.78;36.31
56518;BME280;42419;48.760;2.322;2022-09-21T08:53:43;101767.25;;;22.83;36.16
56518;BME280;42419;48.760;2.322;2022-09-21T08:56:13;101777.84;;;22.88;36.10
56518;BME280;42419;48.760;2.322;2022-09-21T08:58:39;101687.03;;;22.48;35.97
56518;BME280;42419;48.760;2.322;2022-09-21T09:01:22;101770.34;;;22.98;35.82
56518;BME280;42419;48.760;2.322;2022-09-21T09:15:47;101766.81;;;23.22;34.62
56518;BME280;42419;48.760;2.322;2022-09-21T09:18:48;101754.53;;;23.13;34.82
56518;BME280;42419;48.760;2.322;2022-09-21T09:24:05;101770.75;;;23.37;34.70
56518;BME280;42419;48.760;2.322;2022-09-21T09:26:45;101773.25;;;23.41;34.55
56518;BME280;42419;48.760;2.322;2022-09-21T09:32:24;101766.66;;;23.50;34.21
56518;BME280;42419;48.760;2.322;2022-09-21T09:34:56;101766.53;;;23.53;34.09
56518;BME280;42419;48.760;2.322;2022-09-21T09:37:29;101763.69;;;23.57;34.19
56518;BME280;42419;48.760;2.322;2022-09-21T09:39:58;101742.47;;;23.50;34.32
56518;BME280;42419;48.760;2.322;2022-09-21T09:45:28;101754.47;;;23.64;33.77
56518;BME280;42419;48.760;2.322;2022-09-21T09:50:37;101768.34;;;23.76;33.52
56518;BME280;42419;48.760;2.322;2022-09-21T09:55:37;101768.00;;;23.85;33.60
56518;BME280;42419;48.760;2.322;2022-09-21T09:58:04;101769.66;;;23.89;33.77
56518;BME280;42419;48.760;2.322;2022-09-21T10:00:29;101770.50;;;23.91;33.90
56518;BME280;42419;48.760;2.322;2022-09-21T10:02:56;101763.13;;;23.96;33.91
56518;BME280;42419;48.760;2.322;2022-09-21T10:07:53;101746.91;;;23.97;33.43
56518;BME280;42419;48.760;2.322;2022-09-21T10:12:52;101753.50;;;24.12;33.47
56518;BME280;42419;48.760;2.322;2022-09-21T10:15:19;101755.13;;;24.16;33.53
56518;BME280;42419;48.760;2.322;2022-09-21T10:17:46;101751.34;;;24.20;33.65
56518;BME280;42419;48.760;2.322;2022-09-21T10:20:17;101743.22;;;24.22;33.05
56518;BME280;42419;48.760;2.322;2022-09-21T10:22:46;101741.16;;;24.28;33.73
56518;BME280;42419;48.760;2.322;2022-09-21T10:25:17;101741.94;;;24.32;33.13
56518;BME280;42419;48.760;2.322;2022-09-21T10:27:45;101740.03;;;24.34;33.40
56518;BME280;42419;48.760;2.322;2022-09-21T10:30:38;101746.94;;;24.41;33.56
56518;BME280;42419;48.760;2.322;2022-09-21T10:33:17;101719.31;;;24.36;33.44
56518;BME280;42419;48.760;2.322;2022-09-21T10:35:51;101739.44;;;24.47;33.17
56518;BME280;42419;48.760;2.322;2022-09-21T10:38:25;101746.50;;;24.51;33.34
56518;BME280;42419;48.760;2.322;2022-09-21T10:40:52;101718.94;;;24.45;33.03
56518;BME280;42419;48.760;2.322;2022-09-21T10:43:32;101718.81;;;24.48;33.42
56518;BME280;42419;48.760;2.322;2022-09-21T10:46:00;101735.19;;;24.64;33.60
56518;BME280;42419;48.760;2.322;2022-09-21T10:48:26;101738.72;;;24.66;33.18
56518;BME280;42419;48.760;2.322;2022-09-21T10:50:53;101729.75;;;24.65;33.23
56518;BME280;42419;48.760;2.322;2022-09-21T10:56:03;101728.34;;;24.77;33.34
56518;BME280;42419;48.760;2.322;2022-09-21T10:58:30;101735.41;;;24.79;32.93
56518;BME280;42419;48.760;2.322;2022-09-21T11:01:09;101713.00;;;24.79;33.19
56518;BME280;42419;48.760;2.322;2022-09-21T11:03:50;101710.16;;;24.82;33.19
56518;BME280;42419;48.760;2.322;2022-09-21T11:06:41;101704.75;;;24.82;33.11
56518;BME280;42419;48.760;2.322;2022-09-21T11:09:19;101696.78;;;24.80;32.87
56518;BME280;42419;48.760;2.322;2022-09-21T11:12:14;101712.31;;;24.94;33.04
56518;BME280;42419;48.760;2.322;2022-09-21T11:15:19;101714.06;;;24.95;32.86
56518;BME280;42419;48.760;2.322;2022-09-21T11:17:57;101717.56;;;24.97;32.68
56518;BME280;42419;48.760;2.322;2022-09-21T11:20:57;101717.41;;;25.00;32.49
56518;BME280;42419;48.760;2.322;2022-09-21T11:26:23;101715.41;;;25.05;32.86
56518;BME280;42419;48.760;2.322;2022-09-21T11:34:33;101698.06;;;25.12;32.51
56518;BME280;42419;48.760;2.322;2022-09-21T11:45:10;101686.97;;;25.18;32.67
56518;BME280;42419;48.760;2.322;2022-09-21T11:47:49;101687.91;;;25.17;33.01
56518;BME280;42419;48.760;2.322;2022-09-21T11:50:43;101691.38;;;25.21;32.59
56518;BME280;42419;48.760;2.322;2022-09-21T11:53:53;101683.19;;;25.22;33.13
56518;BME280;42419;48.760;2.322;2022-09-21T11:56:06;101675.97;;;25.23;33.10
56518;BME280;42419;48.760;2.322;2022-09-21T11:59:34;101678.63;;;25.24;32.76
56518;BME280;42419;48.760;2.322;2022-09-21T12:04:41;101654.06;;;25.12;32.60
56518;BME280;42419;48.760;2.322;2022-09-21T12:07:41;101666.81;;;25.27;33.14
56518;BME280;42419;48.760;2.322;2022-09-21T12:12:58;101658.94;;;25.22;32.70
56518;BME280;42419;48.760;2.322;2022-09-21T12:15:44;101673.00;;;25.29;32.59
56518;BME280;42419;48.760;2.322;2022-09-21T12:21:10;101676.59;;;25.29;32.45
56518;BME280;42419;48.760;2.322;2022-09-21T12:23:42;101676.50;;;25.31;33.05
56518;BME280;42419;48.760;2.322;2022-09-21T12:26:15;101663.00;;;25.31;32.34
56518;BME280;42419;48.760;2.322;2022-09-21T12:28:49;101650.94;;;25.21;32.54
56518;BME280;42419;48.760;2.322;2022-09-21T12:31:22;101673.00;;;25.29;32.42
56518;BME280;42419;48.760;2.322;2022-09-21T12:33:59;101669.72;;;25.22;32.60
56518;BME280;42419;48.760;2.322;2022-09-21T12:36:34;101667.44;;;25.13;32.41
56518;BME280;42419;48.760;2.322;2022-09-21T12:42:03;101648.84;;;25.07;32.45
56518;BME280;42419;48.760;2.322;2022-09-21T12:44:37;101661.94;;;25.16;32.55
56518;BME280;42419;48.760;2.322;2022-09-21T12:47:20;101658.25;;;25.17;32.10
56518;BME280;42419;48.760;2.322;2022-09-21T12:49:49;101658.16;;;25.20;32.55
56518;BME280;42419;48.760;2.322;2022-09-21T12:52:21;101652.81;;;25.19;32.33
56518;BME280;42419;48.760;2.322;2022-09-21T12:57:59;101653.69;;;25.19;32.04
56518;BME280;42419;48.760;2.322;2022-09-21T13:00:36;101647.69;;;25.13;32.81
56518;BME280;42419;48.760;2.322;2022-09-21T13:03:10;101655.00;;;25.11;32.33
56518;BME280;42419;48.760;2.322;2022-09-21T13:08:10;101648.72;;;25.10;32.12
56518;BME280;42419;48.760;2.322;2022-09-21T13:10:41;101628.66;;;24.97;32.45
56518;BME280;42419;48.760;2.322;2022-09-21T13:13:22;101625.91;;;24.98;31.82
56518;BME280;42419;48.760;2.322;2022-09-21T13:15:49;101633.78;;;25.03;32.27
56518;BME280;42419;48.760;2.322;2022-09-21T13:20:42;101624.03;;;24.99;32.03
56518;BME280;42419;48.760;2.322;2022-09-21T13:23:17;101640.88;;;25.04;31.91
56518;BME280;42419;48.760;2.322;2022-09-21T13:26:05;101630.97;;;25.04;32.15
56518;BME280;42419;48.760;2.322;2022-09-21T13:31:30;101621.03;;;25.07;32.08
56518;BME280;42419;48.760;2.322;2022-09-21T13:34:18;101624.59;;;25.07;32.09
56518;BME280;42419;48.760;2.322;2022-09-21T13:44:58;101595.22;;;25.01;32.41
56518;BME280;42419;48.760;2.322;2022-09-21T13:49:54;101572.72;;;25.02;32.26
56518;BME280;42419;48.760;2.322;2022-09-21T13:52:25;101523.09;;;24.69;31.67
56518;BME280;42419;48.760;2.322;2022-09-21T13:55:36;101598.13;;;25.17;32.20
56518;BME280;42419;48.760;2.322;2022-09-21T13:57:49;101595.44;;;25.17;32.15
56518;BME280;42419;48.760;2.322;2022-09-21T14:05:30;101584.06;;;25.10;31.21
56518;BME280;42419;48.760;2.322;2022-09-21T14:08:00;101587.41;;;25.15;32.26
56518;BME280;42419;48.760;2.322;2022-09-21T14:10:27;101582.00;;;25.15;32.04
56518;BME280;42419;48.760;2.322;2022-09-21T14:12:54;101586.53;;;25.15;32.09
56518;BME280;42419;48.760;2.322;2022-09-21T14:18:47;101582.94;;;25.14;32.27
56518;BME280;42419;48.760;2.322;2022-09-21T14:21:12;101582.16;;;25.12;31.29
56518;BME280;42419;48.760;2.322;2022-09-21T14:24:17;101572.34;;;25.11;30.96
56518;BME280;42419;48.760;2.322;2022-09-21T14:26:54;101578.78;;;25.07;31.94
56518;BME280;42419;48.760;2.322;2022-09-21T14:29:42;101576.09;;;25.07;30.83
56518;BME280;42419;48.760;2.322;2022-09-21T14:32:20;101569.09;;;25.03;31.37
56518;BME280;42419;48.760;2.322;2022-09-21T14:34:49;101570.03;;;25.02;31.05
56518;BME280;42419;48.760;2.322;2022-09-21T14:39:51;101561.56;;;24.91;30.54
56518;BME280;42419;48.760;2.322;2022-09-21T14:42:22;101566.84;;;24.94;29.79
56518;BME280;42419;48.760;2.322;2022-09-21T14:44:49;101549.50;;;24.81;30.61
56518;BME280;42419;48.760;2.322;2022-09-21T15:02:00;101557.03;;;24.73;29.54
56518;BME280;42419;48.760;2.322;2022-09-21T15:04:56;101526.44;;;24.55;28.97
56518;BME280;42419;48.760;2.322;2022-09-21T15:07:44;101535.13;;;24.62;29.67
56518;BME280;42419;48.760;2.322;2022-09-21T15:10:31;101540.34;;;24.65;29.99
56518;BME280;42419;48.760;2.322;2022-09-21T15:16:24;101528.19;;;24.56;30.41
56518;BME280;42419;48.760;2.322;2022-09-21T15:21:40;101535.19;;;24.60;30.68
56518;BME280;42419;48.760;2.322;2022-09-21T15:24:21;101532.63;;;24.57;30.52
56518;BME280;42419;48.760;2.322;2022-09-21T15:26:49;101530.09;;;24.54;30.88
56518;BME280;42419;48.760;2.322;2022-09-21T15:29:27;101491.81;;;24.27;29.59
56518;BME280;42419;48.760;2.322;2022-09-21T15:31:53;101529.50;;;24.46;30.09
56518;BME280;42419;48.760;2.322;2022-09-21T15:34:20;101527.13;;;24.40;29.35
56518;BME280;42419;48.760;2.322;2022-09-21T15:36:46;101521.28;;;24.30;29.51
56518;BME280;42419;48.760;2.322;2022-09-21T15:39:30;101507.50;;;24.17;28.50
56518;BME280;42419;48.760;2.322;2022-09-21T15:44:34;101517.31;;;24.19;29.33